createdAt,value
2019-04-07T00:01:17.270Z,8.40
2019-04-07T00:04:21.608Z,8.30
2019-04-07T00:14:20.798Z,8.20
2019-04-07T00:17:16.595Z,8.20
2019-04-07T00:23:21.369Z,8.10
2019-04-07T00:25:52.903Z,8.10
2019-04-07T00:28:25.882Z,8.10
2019-04-07T00:30:57.387Z,8.00
2019-04-07T00:33:29.398Z,8.00
2019-04-07T00:36:01.204Z,8.00
2019-04-07T00:38:33.658Z,8.00
2019-04-07T00:41:05.629Z,8.00
2019-04-07T00:43:37.591Z,7.90
2019-04-07T00:46:12.405Z,7.90
2019-04-07T00:48:44.924Z,7.90
2019-04-07T00:51:16.723Z,7.80
2019-04-07T00:53:48.178Z,7.80
2019-04-07T00:56:20.451Z,7.80
2019-04-07T00:58:52.412Z,7.80
2019-04-07T01:01:24.571Z,7.70
2019-04-07T01:03:58.385Z,7.70
2019-04-07T01:06:30.053Z,7.70
2019-04-07T01:09:06.995Z,7.60
2019-04-07T01:11:38.519Z,7.60
2019-04-07T01:14:10.310Z,7.60
2019-04-07T01:16:44.222Z,7.60
2019-04-07T01:19:15.416Z,7.60
2019-04-07T01:21:49.927Z,7.50
2019-04-07T01:24:21.892Z,7.50
2019-04-07T01:26:54.675Z,7.50
2019-04-07T01:29:27.874Z,7.40
2019-04-07T01:31:59.431Z,7.40
2019-04-07T01:34:31.541Z,7.40
2019-04-07T01:37:03.505Z,7.30
2019-04-07T01:39:36.277Z,7.30
2019-04-07T01:42:30.169Z,7.30
2019-04-07T01:45:30.265Z,7.30
2019-04-07T01:48:16.105Z,7.30
2019-04-07T01:50:56.154Z,7.20
2019-04-07T01:53:45.432Z,7.20
2019-04-07T01:56:38.420Z,7.10
2019-04-07T01:59:18.271Z,7.10
2019-04-07T02:02:08.090Z,7.00
2019-04-07T02:05:03.405Z,7.00
2019-04-07T02:08:00.346Z,7.00
2019-04-07T02:10:44.463Z,7.00
2019-04-07T02:13:37.078Z,6.90
2019-04-07T02:16:34.454Z,6.90
2019-04-07T02:19:27.800Z,6.90
2019-04-07T02:22:19.028Z,6.90
2019-04-07T02:25:00.897Z,6.80
2019-04-07T02:27:40.586Z,6.80
2019-04-07T02:30:24.963Z,6.80
2019-04-07T02:33:15.540Z,6.80
2019-04-07T02:36:16.060Z,6.70
2019-04-07T02:39:04.586Z,6.70
2019-04-07T02:42:10.999Z,6.70
2019-04-07T02:45:17.137Z,6.60
2019-04-07T02:48:06.914Z,6.60
2019-04-07T02:50:57.028Z,6.60
2019-04-07T02:53:48.506Z,6.60
2019-04-07T02:56:45.036Z,6.50
2019-04-07T02:59:55.768Z,6.50
2019-04-07T03:02:46.250Z,6.50
2019-04-07T03:05:37.226Z,6.40
2019-04-07T03:08:33.520Z,6.40
2019-04-07T03:11:35.757Z,6.40
2019-04-07T03:14:12.963Z,6.40
2019-04-07T03:17:02.587Z,6.30
2019-04-07T03:19:40.163Z,6.30
2019-04-07T03:22:33.148Z,6.30
2019-04-07T03:25:16.101Z,6.30
2019-04-07T03:27:54.681Z,6.20
2019-04-07T03:30:45.266Z,6.20
2019-04-07T03:33:37.348Z,6.20
2019-04-07T03:36:21.278Z,6.20
2019-04-07T03:39:10.854Z,6.20
2019-04-07T03:42:01.077Z,6.20
2019-04-07T03:44:57.595Z,6.10
2019-04-07T03:47:33.838Z,6.10
2019-04-07T03:50:23.470Z,6.10
2019-04-07T03:53:12.622Z,6.10
2019-04-07T03:56:02.706Z,6.10
2019-04-07T03:59:03.525Z,6.00
2019-04-07T04:01:54.074Z,6.00
2019-04-07T04:04:47.677Z,6.00
2019-04-07T04:07:32.747Z,5.90
2019-04-07T04:10:06.639Z,5.90
2019-04-07T04:13:07.007Z,5.90
2019-04-07T04:15:43.609Z,5.90
2019-04-07T04:18:16.220Z,5.90
2019-04-07T04:20:48.561Z,5.90
2019-04-07T04:23:20.018Z,5.90
2019-04-07T04:25:52.370Z,5.90
2019-04-07T04:28:29.089Z,5.90
2019-04-07T04:31:00.581Z,5.90
2019-04-07T04:33:33.014Z,5.90
2019-04-07T04:36:06.328Z,6.00
2019-04-07T04:38:39.435Z,6.00
2019-04-07T04:41:11.253Z,6.10
2019-04-07T04:43:43.353Z,6.20
2019-04-07T04:46:15.114Z,6.30
2019-04-07T04:48:49.424Z,6.50
2019-04-07T04:51:21.579Z,6.70
2019-04-07T04:53:53.746Z,6.90
2019-04-07T04:56:26.103Z,7.10
2019-04-07T04:58:57.528Z,7.40
2019-04-07T05:01:32.199Z,7.60
2019-04-07T05:04:04.015Z,7.80
2019-04-07T05:06:36.838Z,8.10
2019-04-07T05:09:09.089Z,8.40
2019-04-07T05:11:40.863Z,8.60
2019-04-07T05:14:12.124Z,8.90
2019-04-07T05:16:43.820Z,9.10
2019-04-07T05:19:15.417Z,9.40
2019-04-07T05:21:46.998Z,9.60
2019-04-07T05:24:19.489Z,9.90
2019-04-07T05:26:51.116Z,10.10
2019-04-07T05:29:22.486Z,10.30
2019-04-07T05:31:55.732Z,10.60
2019-04-07T05:34:27.923Z,10.70
2019-04-07T05:55:39.315Z,12.40
2019-04-07T05:58:37.457Z,12.60
2019-04-07T06:01:07.511Z,12.80
2019-04-07T06:03:42.811Z,13.10
2019-04-07T06:06:13.469Z,13.20
2019-04-07T06:08:47.815Z,13.40
2019-04-07T06:11:23.586Z,13.70
2019-04-07T06:13:55.695Z,14.00
2019-04-07T06:16:27.569Z,14.20
2019-04-07T06:19:01.796Z,14.40
2019-04-07T06:21:33.614Z,14.50
2019-04-07T06:24:05.579Z,14.80
2019-04-07T06:26:41.523Z,14.90
2019-04-07T06:29:11.627Z,15.10
2019-04-07T06:31:43.566Z,15.30
2019-04-07T06:34:15.137Z,15.50
2019-04-07T06:36:53.558Z,15.70
2019-04-07T06:39:23.210Z,15.90
2019-04-07T06:41:54.875Z,16.10
2019-04-07T06:44:26.374Z,16.30
2019-04-07T06:47:30.899Z,16.40
2019-04-07T06:50:29.125Z,16.60
2019-04-07T07:14:55.044Z,18.40
2019-04-07T07:17:34.393Z,18.50
2019-04-07T08:49:01.718Z,22.40
2019-04-07T09:49:56.582Z,20.00
2019-04-07T09:52:50.145Z,20.00
2019-04-07T09:55:39.270Z,19.90
2019-04-07T09:58:36.335Z,19.80
2019-04-07T10:01:29.774Z,19.80
2019-04-07T10:07:25.170Z,20.20
2019-04-07T10:10:15.996Z,20.40
2019-04-07T10:13:04.027Z,20.50
2019-04-07T10:15:56.315Z,20.40
2019-04-07T10:18:46.639Z,20.40
2019-04-07T10:21:28.364Z,20.30
2019-04-07T10:24:07.959Z,20.30
2019-04-07T10:26:47.330Z,20.40
2019-04-07T10:29:34.108Z,20.50
2019-04-07T10:32:39.579Z,20.50
2019-04-07T10:35:36.019Z,20.50
2019-04-07T10:38:20.485Z,20.50
2019-04-07T10:41:11.864Z,20.40
2019-04-07T10:44:02.388Z,20.40
2019-04-07T10:47:00.565Z,20.50
2019-04-07T10:50:01.486Z,20.50
2019-04-07T10:52:37.987Z,20.60
2019-04-07T10:55:47.520Z,20.60
2019-04-07T10:58:37.899Z,20.70
2019-04-07T11:01:19.676Z,20.70
2019-04-07T11:04:11.545Z,20.70
2019-04-07T11:07:01.895Z,20.60
2019-04-07T11:09:46.158Z,20.50
2019-04-07T11:12:52.495Z,20.40
2019-04-07T11:15:51.971Z,20.40
2019-04-07T11:18:50.730Z,20.30
2019-04-07T11:21:30.314Z,20.30
2019-04-07T11:24:17.831Z,20.40
2019-04-07T11:27:07.091Z,20.40
2019-04-07T11:29:45.215Z,20.50
2019-04-07T11:32:34.771Z,20.50
2019-04-07T11:35:30.700Z,20.40
2019-04-07T11:38:12.266Z,20.30
2019-04-07T11:41:03.454Z,20.20
2019-04-07T11:43:46.806Z,20.10
2019-04-07T11:46:43.210Z,20.10
2019-04-07T11:49:23.088Z,19.90
2019-04-07T11:52:06.020Z,19.80
2019-04-07T11:55:11.942Z,19.70
2019-04-07T11:58:15.952Z,19.60
2019-04-07T12:00:52.708Z,19.60
2019-04-07T12:03:43.181Z,19.70
2019-04-07T12:06:34.183Z,19.70
2019-04-07T12:09:43.260Z,19.80
2019-04-07T12:12:37.607Z,19.90
2019-04-07T12:15:46.276Z,20.00
2019-04-07T12:18:50.370Z,20.10
2019-04-07T12:21:45.047Z,20.10
2019-04-07T12:24:28.644Z,20.10
2019-04-07T12:27:21.657Z,20.10
2019-04-07T12:30:10.087Z,20.10
2019-04-07T12:32:57.512Z,20.00
2019-04-07T12:35:38.155Z,19.90
2019-04-07T12:38:28.983Z,19.80
2019-04-07T12:41:31.823Z,19.80
2019-04-07T12:44:25.498Z,19.80
2019-04-07T12:47:15.673Z,19.70
2019-04-07T12:49:57.263Z,19.60
2019-04-07T12:52:38.065Z,19.40
2019-04-07T12:55:42.389Z,19.40
2019-04-07T12:58:46.029Z,19.30
2019-04-07T13:23:50.399Z,18.80
2019-04-07T13:26:53.000Z,18.80
2019-04-07T13:29:31.288Z,18.80
2019-04-07T13:32:40.243Z,18.70
2019-04-07T13:35:20.077Z,18.80
2019-04-07T13:38:22.205Z,18.80
2019-04-07T13:41:12.112Z,18.70
2019-04-07T13:44:05.546Z,18.80
2019-04-07T13:47:12.711Z,18.80
2019-04-07T13:50:05.283Z,18.80
2019-04-07T13:53:03.348Z,18.80
2019-04-07T13:56:07.207Z,18.70
2019-04-07T13:58:50.929Z,18.60
2019-04-07T14:01:45.167Z,18.50
2019-04-07T14:04:36.038Z,18.60
2019-04-07T14:07:27.293Z,18.50
2019-04-07T14:10:24.465Z,18.40
2019-04-07T14:13:17.444Z,18.40
2019-04-07T14:16:07.412Z,18.40
2019-04-07T14:18:58.031Z,18.40
2019-04-07T14:21:57.733Z,18.30
2019-04-07T14:24:48.569Z,18.40
2019-04-07T14:27:27.637Z,18.30
2019-04-07T14:30:18.178Z,18.30
2019-04-07T14:33:11.237Z,18.30
2019-04-07T14:36:04.645Z,18.30
2019-04-07T14:38:45.473Z,18.30
2019-04-07T14:41:25.804Z,18.20
2019-04-07T14:44:07.342Z,18.20
2019-04-07T14:47:07.647Z,18.20
2019-04-07T14:49:58.339Z,18.20
2019-04-07T14:52:47.214Z,18.20
2019-04-07T14:55:44.041Z,18.20
2019-04-07T14:58:51.248Z,18.10
2019-04-07T15:01:37.888Z,18.10
2019-04-07T15:04:14.205Z,18.10
2019-04-07T15:06:47.384Z,18.10
2019-04-07T15:09:30.555Z,18.00
2019-04-07T15:12:17.620Z,18.00
2019-04-07T15:14:45.950Z,18.00
2019-04-07T15:17:19.269Z,18.00
2019-04-07T15:19:53.522Z,17.90
2019-04-07T15:22:28.512Z,17.90
2019-04-07T15:25:01.417Z,17.90
2019-04-07T15:27:35.000Z,17.90
2019-04-07T15:30:07.594Z,17.90
2019-04-07T15:32:39.465Z,17.80
2019-04-07T15:35:12.354Z,17.80
2019-04-07T15:37:44.614Z,17.80
2019-04-07T15:40:18.131Z,17.80
2019-04-07T15:42:52.706Z,17.70
2019-04-07T15:45:25.087Z,17.70
2019-04-07T15:47:57.878Z,17.70
2019-04-07T15:50:31.402Z,17.70
2019-04-07T15:53:02.908Z,17.70
2019-04-07T15:55:45.947Z,17.70
2019-04-07T15:58:08.579Z,17.60
2019-04-07T16:00:40.869Z,17.60
2019-04-07T16:03:15.269Z,17.60
2019-04-07T16:05:46.584Z,17.60
2019-04-07T16:08:18.789Z,17.60
2019-04-07T16:10:52.069Z,17.50
2019-04-07T16:13:26.994Z,17.50
2019-04-07T16:15:59.570Z,17.40
2019-04-07T16:18:40.294Z,17.40
2019-04-07T16:21:14.208Z,17.40
2019-04-07T16:23:50.351Z,17.30
2019-04-07T16:26:19.703Z,17.30
2019-04-07T16:28:51.981Z,17.30
2019-04-07T16:31:25.432Z,17.20
2019-04-07T16:33:56.446Z,17.20
2019-04-07T16:36:28.167Z,17.20
2019-04-07T16:39:02.346Z,17.10
2019-04-07T16:41:35.240Z,17.10
2019-04-07T16:44:10.671Z,17.10
2019-04-07T16:46:43.725Z,17.00
2019-04-07T16:49:16.988Z,17.00
2019-04-07T16:51:49.386Z,16.90
2019-04-07T16:54:20.803Z,16.80
2019-04-07T16:56:56.271Z,16.80
2019-04-07T16:59:26.433Z,16.70
2019-04-07T17:01:58.054Z,16.70
2019-04-07T17:04:30.038Z,16.60
2019-04-07T17:07:05.008Z,16.50
2019-04-07T17:09:35.778Z,16.40
2019-04-07T17:12:10.285Z,16.30
2019-04-07T17:14:42.436Z,16.20
2019-04-07T17:17:18.297Z,16.10
2019-04-07T17:19:47.789Z,16.00
2019-04-07T17:22:19.728Z,15.80
2019-04-07T17:24:51.966Z,15.70
2019-04-07T17:27:24.051Z,15.50
2019-04-07T17:29:56.620Z,15.30
2019-04-07T17:32:30.525Z,15.20
2019-04-07T17:35:02.188Z,15.10
2019-04-07T17:37:35.228Z,14.90
2019-04-07T17:40:18.033Z,14.80
2019-04-07T17:42:52.801Z,14.70
2019-04-07T17:45:42.866Z,14.50
2019-04-07T17:48:49.499Z,14.40
2019-04-07T17:51:31.374Z,14.20
2019-04-07T17:54:21.749Z,14.10
2019-04-07T17:57:01.309Z,13.90
2019-04-07T17:59:46.624Z,13.80
2019-04-07T18:02:32.620Z,13.70
2019-04-07T18:05:34.499Z,13.60
2019-04-07T18:08:34.302Z,13.50
2019-04-07T18:11:29.303Z,13.40
2019-04-07T18:14:28.678Z,13.30
2019-04-07T18:17:20.472Z,13.20
2019-04-07T18:20:14.066Z,13.20
2019-04-07T18:23:04.639Z,13.10
2019-04-07T18:25:46.810Z,13.00
2019-04-07T18:28:43.326Z,12.90
2019-04-07T18:31:41.941Z,12.80
2019-04-07T18:34:42.921Z,12.70
2019-04-07T18:37:39.790Z,12.60
2019-04-07T18:40:38.056Z,12.60
2019-04-07T18:43:28.985Z,12.50
2019-04-07T18:46:11.871Z,12.40
2019-04-07T18:49:02.431Z,12.40
2019-04-07T18:51:52.263Z,12.30
2019-04-07T18:55:04.343Z,12.30
2019-04-07T18:57:47.746Z,12.20
2019-04-07T19:00:38.078Z,12.10
2019-04-07T19:03:21.729Z,12.10
2019-04-07T19:06:08.654Z,12.00
2019-04-07T19:09:01.314Z,12.00
2019-04-07T19:12:14.154Z,11.90
2019-04-07T19:15:04.048Z,11.80
2019-04-07T19:17:55.952Z,11.80
2019-04-07T19:21:01.811Z,11.70
2019-04-07T19:24:18.402Z,11.60
2019-04-07T19:27:11.920Z,11.60
2019-04-07T19:33:27.059Z,11.40
2019-04-07T19:36:19.880Z,11.30
2019-04-07T19:39:29.601Z,11.20
2019-04-07T19:42:28.949Z,11.10
2019-04-07T19:45:13.414Z,11.10
2019-04-07T19:48:07.367Z,11.00
2019-04-07T19:51:03.223Z,11.00
2019-04-07T19:54:00.735Z,11.00
2019-04-07T19:56:51.080Z,11.00
2019-04-07T19:59:50.687Z,10.90
2019-04-07T20:02:41.230Z,10.90
2019-04-07T20:05:51.953Z,10.80
2019-04-07T20:08:41.708Z,10.80
2019-04-07T20:11:34.468Z,10.70
2019-04-07T20:14:47.964Z,10.70
2019-04-07T20:17:23.720Z,10.70
2019-04-07T20:20:04.228Z,10.80
2019-04-07T20:22:41.618Z,10.80
2019-04-07T20:25:33.293Z,10.80
2019-04-07T20:28:30.258Z,10.80
2019-04-07T20:31:37.374Z,10.80
2019-04-07T20:34:24.018Z,10.80
2019-04-07T20:37:11.622Z,10.70
2019-04-07T20:40:06.687Z,10.70
2019-04-07T20:42:51.658Z,10.60
2019-04-07T20:45:58.944Z,10.50
2019-04-07T20:48:49.683Z,10.40
2019-04-07T20:51:38.836Z,10.30
2019-04-07T20:54:19.511Z,10.30
2019-04-07T20:57:16.278Z,10.20
2019-04-07T21:00:06.628Z,10.20
2019-04-07T21:03:16.186Z,10.20
2019-04-07T21:06:00.335Z,10.20
2019-04-07T21:08:54.659Z,10.20
2019-04-07T21:11:45.009Z,10.20
2019-04-07T21:14:30.097Z,10.10
2019-04-07T21:17:24.030Z,10.10
2019-04-07T21:20:32.700Z,10.00
2019-04-07T21:23:28.675Z,10.00
2019-04-07T21:26:10.731Z,10.00
2019-04-07T21:28:50.822Z,10.00
2019-04-07T21:31:47.579Z,10.00
2019-04-07T21:34:44.997Z,9.90
2019-04-07T21:37:40.709Z,9.90
2019-04-07T21:40:44.858Z,9.80
2019-04-07T21:43:28.043Z,9.80
2019-04-07T21:46:07.929Z,9.80
2019-04-07T21:49:14.451Z,9.80
2019-04-07T21:52:05.498Z,9.90
2019-04-07T21:54:55.594Z,9.90
2019-04-07T21:58:03.680Z,9.90
2019-04-07T22:00:56.464Z,9.90
2019-04-07T22:03:52.879Z,9.90
2019-04-07T22:06:45.419Z,9.80
2019-04-07T22:09:30.326Z,9.80
2019-04-07T22:12:02.960Z,9.80
2019-04-07T22:14:37.445Z,9.80
2019-04-07T22:17:08.301Z,9.80
2019-04-07T22:19:44.205Z,9.80
2019-04-07T22:22:14.754Z,9.80
2019-04-07T22:24:49.277Z,9.80
2019-04-07T22:27:27.297Z,9.70
2019-04-07T22:29:59.969Z,9.70
2019-04-07T22:32:33.901Z,9.70
2019-04-07T22:35:06.869Z,9.70
2019-04-07T22:37:40.167Z,9.60
2019-04-07T22:40:15.816Z,9.60
2019-04-07T22:42:48.512Z,9.60
2019-04-07T22:45:25.135Z,9.50
2019-04-07T22:47:53.749Z,9.40
2019-04-07T22:50:27.090Z,9.40
2019-04-07T22:53:00.178Z,9.30
2019-04-07T22:55:35.945Z,9.30
2019-04-07T22:58:09.900Z,9.30
2019-04-07T23:00:42.385Z,9.20
2019-04-07T23:03:15.588Z,9.10
2019-04-07T23:05:51.202Z,9.10
2019-04-07T23:08:22.797Z,9.00
2019-04-07T23:10:55.976Z,8.90
2019-04-07T23:13:30.541Z,8.80
2019-04-07T23:16:11.906Z,8.70
2019-04-07T23:18:36.087Z,8.60
2019-04-07T23:21:07.984Z,8.60
2019-04-07T23:23:40.094Z,8.50
2019-04-07T23:26:11.506Z,8.40
2019-04-07T23:28:44.457Z,8.40
2019-04-07T23:31:16.222Z,8.30
2019-04-07T23:33:47.863Z,8.20
2019-04-07T23:36:20.386Z,8.20
2019-04-07T23:38:51.741Z,8.20
2019-04-07T23:41:25.615Z,8.10
2019-04-07T23:43:57.077Z,8.10
2019-04-07T23:46:32.338Z,8.00
2019-04-07T23:49:03.961Z,7.90
2019-04-07T23:51:35.239Z,7.90
2019-04-07T23:54:09.152Z,7.80
2019-04-07T23:56:43.473Z,7.80
2019-04-07T23:59:16.991Z,7.70
